sensor_id;sensor_type;location;lat;lon;timestamp;temperature;humidity
18721;DHT22;9489;50.948;3.114;2023-03-31T00:00:19;11.90;99.90
18721;DHT22;9489;50.948;3.114;2023-03-31T00:02:45;11.90;99.90
18721;DHT22;9489;50.948;3.114;2023-03-31T00:05:10;11.80;99.90
18721;DHT22;9489;50.948;3.114;2023-03-31T00:07:42;11.80;99.90
18721;DHT22;9489;50.948;3.114;2023-03-31T00:10:08;11.70;99.90
18721;DHT22;9489;50.948;3.114;2023-03-31T00:12:35;11.70;99.90
18721;DHT22;9489;50.948;3.114;2023-03-31T00:15:00;11.60;99.90
18721;DHT22;9489;50.948;3.114;2023-03-31T00:17:26;11.60;99.90
18721;DHT22;9489;50.948;3.114;2023-03-31T00:19:52;11.50;99.90
18721;DHT22;9489;50.948;3.114;2023-03-31T00:22:18;11.50;99.90
18721;DHT22;9489;50.948;3.114;2023-03-31T00:24:46;11.50;99.90
18721;DHT22;9489;50.948;3.114;2023-03-31T00:27:12;11.40;99.90
18721;DHT22;9489;50.948;3.114;2023-03-31T00:29:38;11.40;99.90
18721;DHT22;9489;50.948;3.114;2023-03-31T00:32:06;11.40;99.90
18721;DHT22;9489;50.948;3.114;2023-03-31T00:34:32;11.40;99.90
18721;DHT22;9489;50.948;3.114;2023-03-31T00:36:59;11.40;99.90
18721;DHT22;9489;50.948;3.114;2023-03-31T00:39:28;11.40;99.90
18721;DHT22;9489;50.948;3.114;2023-03-31T00:41:57;11.40;99.90
18721;DHT22;9489;50.948;3.114;2023-03-31T00:44:23;11.40;99.90
18721;DHT22;9489;50.948;3.114;2023-03-31T00:47:12;11.30;99.90
18721;DHT22;9489;50.948;3.114;2023-03-31T00:49:42;11.30;99.90
18721;DHT22;9489;50.948;3.114;2023-03-31T00:52:16;11.30;99.90
18721;DHT22;9489;50.948;3.114;2023-03-31T00:54:47;11.30;99.90
18721;DHT22;9489;50.948;3.114;2023-03-31T00:57:14;11.30;99.90
18721;DHT22;9489;50.948;3.114;2023-03-31T00:59:46;11.20;99.90
18721;DHT22;9489;50.948;3.114;2023-03-31T01:02:15;11.20;99.90
18721;DHT22;9489;50.948;3.114;2023-03-31T01:04:48;11.20;99.90
18721;DHT22;9489;50.948;3.114;2023-03-31T01:07:25;11.20;99.90
18721;DHT22;9489;50.948;3.114;2023-03-31T01:09:52;11.20;99.90
18721;DHT22;9489;50.948;3.114;2023-03-31T01:12:21;11.10;99.90
18721;DHT22;9489;50.948;3.114;2023-03-31T01:14:49;11.10;99.90
18721;DHT22;9489;50.948;3.114;2023-03-31T01:17:17;11.10;99.90
18721;DHT22;9489;50.948;3.114;2023-03-31T01:20:05;11.10;99.90
18721;DHT22;9489;50.948;3.114;2023-03-31T01:22:49;11.10;99.90
18721;DHT22;9489;50.948;3.114;2023-03-31T01:25:47;11.10;99.90
18721;DHT22;9489;50.948;3.114;2023-03-31T01:40:00;11.20;99.90
18721;DHT22;9489;50.948;3.114;2023-03-31T01:42:51;11.30;99.90
18721;DHT22;9489;50.948;3.114;2023-03-31T01:45:27;11.30;99.90
18721;DHT22;9489;50.948;3.114;2023-03-31T01:48:04;11.30;99.90
18721;DHT22;9489;50.948;3.114;2023-03-31T01:53:28;11.40;99.90
18721;DHT22;9489;50.948;3.114;2023-03-31T01:58:36;11.50;99.90
18721;DHT22;9489;50.948;3.114;2023-03-31T02:01:19;11.50;99.90
18721;DHT22;9489;50.948;3.114;2023-03-31T02:03:55;11.50;99.90
18721;DHT22;9489;50.948;3.114;2023-03-31T02:06:26;11.50;99.90
18721;DHT22;9489;50.948;3.114;2023-03-31T02:09:02;11.60;99.90
18721;DHT22;9489;50.948;3.114;2023-03-31T02:11:30;11.60;99.90
18721;DHT22;9489;50.948;3.114;2023-03-31T02:13:58;11.50;99.90
18721;DHT22;9489;50.948;3.114;2023-03-31T02:16:27;11.50;99.90
18721;DHT22;9489;50.948;3.114;2023-03-31T02:18:57;11.50;99.90
18721;DHT22;9489;50.948;3.114;2023-03-31T02:21:31;11.50;99.90
18721;DHT22;9489;50.948;3.114;2023-03-31T02:23:59;11.50;99.90
18721;DHT22;9489;50.948;3.114;2023-03-31T02:26:30;11.50;99.90
18721;DHT22;9489;50.948;3.114;2023-03-31T02:28:56;11.50;99.90
18721;DHT22;9489;50.948;3.114;2023-03-31T02:31:48;11.50;99.90
18721;DHT22;9489;50.948;3.114;2023-03-31T02:34:16;11.50;99.90
18721;DHT22;9489;50.948;3.114;2023-03-31T02:36:42;11.50;99.90
18721;DHT22;9489;50.948;3.114;2023-03-31T02:39:14;11.50;99.90
18721;DHT22;9489;50.948;3.114;2023-03-31T02:41:41;11.50;99.90
18721;DHT22;9489;50.948;3.114;2023-03-31T02:44:08;11.50;99.90
18721;DHT22;9489;50.948;3.114;2023-03-31T02:46:34;11.50;99.90
18721;DHT22;9489;50.948;3.114;2023-03-31T02:49:02;11.40;99.90
18721;DHT22;9489;50.948;3.114;2023-03-31T03:06:17;11.30;99.90
18721;DHT22;9489;50.948;3.114;2023-03-31T03:09:04;11.30;99.90
18721;DHT22;9489;50.948;3.114;2023-03-31T03:11:36;11.30;99.90
18721;DHT22;9489;50.948;3.114;2023-03-31T03:14:49;11.30;99.90
18721;DHT22;9489;50.948;3.114;2023-03-31T03:17:06;11.20;99.90
18721;DHT22;9489;50.948;3.114;2023-03-31T03:19:33;11.10;99.90
18721;DHT22;9489;50.948;3.114;2023-03-31T03:21:59;11.10;99.90
18721;DHT22;9489;50.948;3.114;2023-03-31T03:24:25;11.00;99.90
18721;DHT22;9489;50.948;3.114;2023-03-31T03:26:54;10.90;99.90
18721;DHT22;9489;50.948;3.114;2023-03-31T03:29:20;10.90;99.90
18721;DHT22;9489;50.948;3.114;2023-03-31T03:31:46;10.90;99.90
18721;DHT22;9489;50.948;3.114;2023-03-31T03:34:11;10.80;99.90
18721;DHT22;9489;50.948;3.114;2023-03-31T03:36:37;10.80;99.90
18721;DHT22;9489;50.948;3.114;2023-03-31T03:39:05;10.70;99.90
18721;DHT22;9489;50.948;3.114;2023-03-31T03:41:32;10.70;99.90
18721;DHT22;9489;50.948;3.114;2023-03-31T03:43:58;10.60;99.90
18721;DHT22;9489;50.948;3.114;2023-03-31T03:46:24;10.50;99.90
18721;DHT22;9489;50.948;3.114;2023-03-31T03:48:50;10.50;99.90
18721;DHT22;9489;50.948;3.114;2023-03-31T03:51:15;10.50;99.90
18721;DHT22;9489;50.948;3.114;2023-03-31T03:53:41;10.40;99.90
18721;DHT22;9489;50.948;3.114;2023-03-31T03:56:07;10.30;99.90
18721;DHT22;9489;50.948;3.114;2023-03-31T03:58:32;10.30;99.90
18721;DHT22;9489;50.948;3.114;2023-03-31T04:00:58;10.20;99.90
18721;DHT22;9489;50.948;3.114;2023-03-31T04:03:23;10.20;99.90
18721;DHT22;9489;50.948;3.114;2023-03-31T04:05:49;10.20;99.90
18721;DHT22;9489;50.948;3.114;2023-03-31T04:08:15;10.20;99.90
18721;DHT22;9489;50.948;3.114;2023-03-31T04:10:45;10.10;99.90
18721;DHT22;9489;50.948;3.114;2023-03-31T04:13:12;10.10;99.90
18721;DHT22;9489;50.948;3.114;2023-03-31T04:15:37;10.00;99.90
18721;DHT22;9489;50.948;3.114;2023-03-31T04:18:03;10.00;99.90
18721;DHT22;9489;50.948;3.114;2023-03-31T04:20:29;10.00;99.90
18721;DHT22;9489;50.948;3.114;2023-03-31T04:22:56;10.00;99.90
18721;DHT22;9489;50.948;3.114;2023-03-31T04:25:21;10.00;99.90
18721;DHT22;9489;50.948;3.114;2023-03-31T04:27:49;10.00;99.90
18721;DHT22;9489;50.948;3.114;2023-03-31T04:30:20;10.00;99.90
18721;DHT22;9489;50.948;3.114;2023-03-31T04:32:54;10.00;99.90
18721;DHT22;9489;50.948;3.114;2023-03-31T04:35:22;10.00;99.90
18721;DHT22;9489;50.948;3.114;2023-03-31T04:37:49;10.10;99.90
18721;DHT22;9489;50.948;3.114;2023-03-31T04:40:16;10.10;99.90
18721;DHT22;9489;50.948;3.114;2023-03-31T04:42:43;10.10;99.90
18721;DHT22;9489;50.948;3.114;2023-03-31T04:45:10;10.10;99.90
18721;DHT22;9489;50.948;3.114;2023-03-31T04:47:35;10.10;99.90
18721;DHT22;9489;50.948;3.114;2023-03-31T04:50:01;10.10;99.90
18721;DHT22;9489;50.948;3.114;2023-03-31T04:52:27;10.20;99.90
18721;DHT22;9489;50.948;3.114;2023-03-31T04:54:52;10.20;99.90
18721;DHT22;9489;50.948;3.114;2023-03-31T04:57:18;10.20;99.90
18721;DHT22;9489;50.948;3.114;2023-03-31T04:59:44;10.20;99.90
18721;DHT22;9489;50.948;3.114;2023-03-31T05:02:10;10.30;99.90
18721;DHT22;9489;50.948;3.114;2023-03-31T05:04:35;10.30;99.90
18721;DHT22;9489;50.948;3.114;2023-03-31T05:07:02;10.40;99.90
18721;DHT22;9489;50.948;3.114;2023-03-31T05:09:28;10.40;99.90
18721;DHT22;9489;50.948;3.114;2023-03-31T05:11:53;10.50;99.90
18721;DHT22;9489;50.948;3.114;2023-03-31T05:14:19;10.50;99.90
18721;DHT22;9489;50.948;3.114;2023-03-31T05:16:45;10.60;99.90
18721;DHT22;9489;50.948;3.114;2023-03-31T05:19:10;10.60;99.90
18721;DHT22;9489;50.948;3.114;2023-03-31T05:21:36;10.70;99.90
18721;DHT22;9489;50.948;3.114;2023-03-31T05:24:02;10.70;99.90
18721;DHT22;9489;50.948;3.114;2023-03-31T05:26:29;10.80;99.90
18721;DHT22;9489;50.948;3.114;2023-03-31T05:28:55;10.80;99.90
18721;DHT22;9489;50.948;3.114;2023-03-31T05:31:21;10.90;99.90
18721;DHT22;9489;50.948;3.114;2023-03-31T05:33:46;11.00;99.90
18721;DHT22;9489;50.948;3.114;2023-03-31T05:36:14;11.00;99.90
18721;DHT22;9489;50.948;3.114;2023-03-31T05:38:40;11.10;99.90
18721;DHT22;9489;50.948;3.114;2023-03-31T05:41:06;11.10;99.90
18721;DHT22;9489;50.948;3.114;2023-03-31T05:43:34;11.20;99.90
18721;DHT22;9489;50.948;3.114;2023-03-31T05:46:00;11.20;99.90
18721;DHT22;9489;50.948;3.114;2023-03-31T05:48:26;11.30;99.90
18721;DHT22;9489;50.948;3.114;2023-03-31T05:50:58;11.30;99.90
18721;DHT22;9489;50.948;3.114;2023-03-31T05:53:25;11.30;99.90
18721;DHT22;9489;50.948;3.114;2023-03-31T05:55:59;11.30;99.90
18721;DHT22;9489;50.948;3.114;2023-03-31T05:58:26;11.40;99.90
18721;DHT22;9489;50.948;3.114;2023-03-31T06:01:12;11.40;99.90
18721;DHT22;9489;50.948;3.114;2023-03-31T06:03:44;11.40;99.90
18721;DHT22;9489;50.948;3.114;2023-03-31T06:06:10;11.40;99.90
18721;DHT22;9489;50.948;3.114;2023-03-31T06:08:37;11.50;99.90
18721;DHT22;9489;50.948;3.114;2023-03-31T06:11:05;11.40;99.90
18721;DHT22;9489;50.948;3.114;2023-03-31T06:13:31;11.40;99.90
18721;DHT22;9489;50.948;3.114;2023-03-31T06:15:58;11.40;99.90
18721;DHT22;9489;50.948;3.114;2023-03-31T06:18:25;11.50;99.90
18721;DHT22;9489;50.948;3.114;2023-03-31T06:20:53;11.50;99.90
18721;DHT22;9489;50.948;3.114;2023-03-31T06:23:19;11.50;99.90
18721;DHT22;9489;50.948;3.114;2023-03-31T06:25:45;11.50;99.90
18721;DHT22;9489;50.948;3.114;2023-03-31T06:28:10;11.50;99.90
18721;DHT22;9489;50.948;3.114;2023-03-31T06:30:36;11.60;99.90
18721;DHT22;9489;50.948;3.114;2023-03-31T06:33:02;11.60;99.90
18721;DHT22;9489;50.948;3.114;2023-03-31T06:35:27;11.60;99.90
18721;DHT22;9489;50.948;3.114;2023-03-31T06:37:53;11.60;99.90
18721;DHT22;9489;50.948;3.114;2023-03-31T06:40:18;11.70;99.90
18721;DHT22;9489;50.948;3.114;2023-03-31T06:42:44;11.60;99.90
18721;DHT22;9489;50.948;3.114;2023-03-31T06:45:10;11.70;99.90
18721;DHT22;9489;50.948;3.114;2023-03-31T06:47:35;11.70;99.90
18721;DHT22;9489;50.948;3.114;2023-03-31T06:50:04;11.70;99.90
18721;DHT22;9489;50.948;3.114;2023-03-31T06:52:30;11.70;99.90
18721;DHT22;9489;50.948;3.114;2023-03-31T06:54:56;11.70;99.90
18721;DHT22;9489;50.948;3.114;2023-03-31T06:57:21;11.70;99.90
18721;DHT22;9489;50.948;3.114;2023-03-31T06:59:47;11.70;99.90
18721;DHT22;9489;50.948;3.114;2023-03-31T07:02:13;11.80;99.90
18721;DHT22;9489;50.948;3.114;2023-03-31T07:04:38;11.80;99.90
18721;DHT22;9489;50.948;3.114;2023-03-31T07:07:04;11.80;99.90
18721;DHT22;9489;50.948;3.114;2023-03-31T07:09:29;11.80;99.90
18721;DHT22;9489;50.948;3.114;2023-03-31T07:11:55;11.70;99.90
18721;DHT22;9489;50.948;3.114;2023-03-31T07:14:20;11.70;99.90
18721;DHT22;9489;50.948;3.114;2023-03-31T07:16:47;11.70;99.90
18721;DHT22;9489;50.948;3.114;2023-03-31T07:19:12;11.70;99.90
18721;DHT22;9489;50.948;3.114;2023-03-31T07:21:39;11.70;99.90
18721;DHT22;9489;50.948;3.114;2023-03-31T07:24:05;11.60;99.90
18721;DHT22;9489;50.948;3.114;2023-03-31T07:26:31;11.60;99.90
18721;DHT22;9489;50.948;3.114;2023-03-31T07:28:56;11.50;99.90
18721;DHT22;9489;50.948;3.114;2023-03-31T07:31:22;11.50;99.90
18721;DHT22;9489;50.948;3.114;2023-03-31T07:33:48;11.50;99.90
18721;DHT22;9489;50.948;3.114;2023-03-31T07:36:14;11.50;99.90
18721;DHT22;9489;50.948;3.114;2023-03-31T07:38:40;11.50;99.90
18721;DHT22;9489;50.948;3.114;2023-03-31T07:41:15;11.50;99.90
18721;DHT22;9489;50.948;3.114;2023-03-31T07:43:41;11.50;99.90
18721;DHT22;9489;50.948;3.114;2023-03-31T07:46:23;11.50;99.90
18721;DHT22;9489;50.948;3.114;2023-03-31T07:48:49;11.60;99.90
18721;DHT22;9489;50.948;3.114;2023-03-31T07:51:18;11.60;99.90
18721;DHT22;9489;50.948;3.114;2023-03-31T07:53:44;11.70;99.90
18721;DHT22;9489;50.948;3.114;2023-03-31T07:56:10;11.70;99.90
18721;DHT22;9489;50.948;3.114;2023-03-31T07:58:36;11.80;99.90
18721;DHT22;9489;50.948;3.114;2023-03-31T08:01:02;11.80;99.90
18721;DHT22;9489;50.948;3.114;2023-03-31T08:03:28;11.80;99.90
18721;DHT22;9489;50.948;3.114;2023-03-31T08:05:53;11.80;99.90
18721;DHT22;9489;50.948;3.114;2023-03-31T08:08:20;11.80;99.90
18721;DHT22;9489;50.948;3.114;2023-03-31T08:10:46;11.80;99.90
18721;DHT22;9489;50.948;3.114;2023-03-31T08:13:11;11.90;99.90
18721;DHT22;9489;50.948;3.114;2023-03-31T08:15:37;11.80;99.90
18721;DHT22;9489;50.948;3.114;2023-03-31T08:18:03;11.80;99.90
18721;DHT22;9489;50.948;3.114;2023-03-31T08:20:29;11.90;99.90
18721;DHT22;9489;50.948;3.114;2023-03-31T08:22:55;11.90;99.90
18721;DHT22;9489;50.948;3.114;2023-03-31T08:25:20;11.90;99.90
18721;DHT22;9489;50.948;3.114;2023-03-31T08:27:46;11.90;99.90
18721;DHT22;9489;50.948;3.114;2023-03-31T08:30:16;11.90;99.90
18721;DHT22;9489;50.948;3.114;2023-03-31T08:32:42;11.90;99.90
18721;DHT22;9489;50.948;3.114;2023-03-31T08:35:08;11.80;99.90
18721;DHT22;9489;50.948;3.114;2023-03-31T08:37:34;11.80;99.90
18721;DHT22;9489;50.948;3.114;2023-03-31T08:40:00;11.70;99.90
18721;DHT22;9489;50.948;3.114;2023-03-31T08:42:35;11.70;99.90
18721;DHT22;9489;50.948;3.114;2023-03-31T08:45:03;11.70;99.90
18721;DHT22;9489;50.948;3.114;2023-03-31T08:47:32;11.60;99.90
18721;DHT22;9489;50.948;3.114;2023-03-31T08:50:15;11.60;99.90
18721;DHT22;9489;50.948;3.114;2023-03-31T08:52:54;11.50;99.90
18721;DHT22;9489;50.948;3.114;2023-03-31T08:55:33;11.50;99.90
18721;DHT22;9489;50.948;3.114;2023-03-31T08:58:08;11.40;99.90
18721;DHT22;9489;50.948;3.114;2023-03-31T09:01:09;11.40;99.90
18721;DHT22;9489;50.948;3.114;2023-03-31T09:13:01;11.20;99.90
18721;DHT22;9489;50.948;3.114;2023-03-31T09:16:02;11.20;99.90
18721;DHT22;9489;50.948;3.114;2023-03-31T09:18:34;11.30;99.90
18721;DHT22;9489;50.948;3.114;2023-03-31T09:21:22;11.30;99.90
18721;DHT22;9489;50.948;3.114;2023-03-31T09:24:14;11.30;99.90
18721;DHT22;9489;50.948;3.114;2023-03-31T09:29:54;11.50;99.90
18721;DHT22;9489;50.948;3.114;2023-03-31T09:32:27;11.40;99.90
18721;DHT22;9489;50.948;3.114;2023-03-31T09:37:41;11.40;99.90
18721;DHT22;9489;50.948;3.114;2023-03-31T09:40:12;11.40;99.90
18721;DHT22;9489;50.948;3.114;2023-03-31T09:42:39;11.40;99.90
18721;DHT22;9489;50.948;3.114;2023-03-31T09:45:05;11.40;99.90
18721;DHT22;9489;50.948;3.114;2023-03-31T09:47:57;11.40;99.90
18721;DHT22;9489;50.948;3.114;2023-03-31T09:50:23;11.50;99.90
18721;DHT22;9489;50.948;3.114;2023-03-31T09:52:58;11.50;99.90
18721;DHT22;9489;50.948;3.114;2023-03-31T09:55:45;11.60;99.90
18721;DHT22;9489;50.948;3.114;2023-03-31T09:58:14;11.60;99.90
18721;DHT22;9489;50.948;3.114;2023-03-31T10:00:42;11.60;99.90
18721;DHT22;9489;50.948;3.114;2023-03-31T10:03:12;11.60;99.90
18721;DHT22;9489;50.948;3.114;2023-03-31T10:05:51;11.50;99.90
18721;DHT22;9489;50.948;3.114;2023-03-31T10:08:33;11.50;99.90
18721;DHT22;9489;50.948;3.114;2023-03-31T10:16:09;11.40;99.90
18721;DHT22;9489;50.948;3.114;2023-03-31T10:18:39;11.40;99.90
18721;DHT22;9489;50.948;3.114;2023-03-31T10:21:14;11.40;99.90
18721;DHT22;9489;50.948;3.114;2023-03-31T10:23:45;11.40;99.90
18721;DHT22;9489;50.948;3.114;2023-03-31T10:26:15;11.40;99.90
18721;DHT22;9489;50.948;3.114;2023-03-31T10:28:41;11.40;99.90
18721;DHT22;9489;50.948;3.114;2023-03-31T10:31:07;11.50;99.90
18721;DHT22;9489;50.948;3.114;2023-03-31T10:33:36;11.60;99.90
18721;DHT22;9489;50.948;3.114;2023-03-31T10:36:18;11.60;99.90
18721;DHT22;9489;50.948;3.114;2023-03-31T10:38:46;11.70;99.90
18721;DHT22;9489;50.948;3.114;2023-03-31T10:41:18;11.60;99.90
18721;DHT22;9489;50.948;3.114;2023-03-31T10:43:53;11.60;99.90
18721;DHT22;9489;50.948;3.114;2023-03-31T10:46:20;11.60;99.90
18721;DHT22;9489;50.948;3.114;2023-03-31T10:48:46;11.60;99.90
18721;DHT22;9489;50.948;3.114;2023-03-31T10:51:28;11.60;99.90
18721;DHT22;9489;50.948;3.114;2023-03-31T10:54:01;11.70;99.90
18721;DHT22;9489;50.948;3.114;2023-03-31T10:56:46;11.70;99.90
18721;DHT22;9489;50.948;3.114;2023-03-31T11:14:20;11.50;99.90
18721;DHT22;9489;50.948;3.114;2023-03-31T11:29:41;11.50;99.90
18721;DHT22;9489;50.948;3.114;2023-03-31T11:41:09;11.50;99.90
18721;DHT22;9489;50.948;3.114;2023-03-31T11:43:47;11.50;99.90
18721;DHT22;9489;50.948;3.114;2023-03-31T11:49:18;11.40;99.90
18721;DHT22;9489;50.948;3.114;2023-03-31T11:51:56;11.40;99.90
18721;DHT22;9489;50.948;3.114;2023-03-31T11:57:32;11.40;99.90
18721;DHT22;9489;50.948;3.114;2023-03-31T12:00:20;11.30;99.90
18721;DHT22;9489;50.948;3.114;2023-03-31T12:05:25;11.40;99.90
18721;DHT22;9489;50.948;3.114;2023-03-31T12:07:57;11.40;99.90
18721;DHT22;9489;50.948;3.114;2023-03-31T12:10:38;11.40;99.90
18721;DHT22;9489;50.948;3.114;2023-03-31T12:16:16;11.50;99.90
18721;DHT22;9489;50.948;3.114;2023-03-31T12:19:03;11.50;99.90
18721;DHT22;9489;50.948;3.114;2023-03-31T12:21:33;11.50;99.90
18721;DHT22;9489;50.948;3.114;2023-03-31T12:24:00;11.60;99.90
18721;DHT22;9489;50.948;3.114;2023-03-31T12:31:43;11.70;99.90
18721;DHT22;9489;50.948;3.114;2023-03-31T12:34:13;11.70;99.90
18721;DHT22;9489;50.948;3.114;2023-03-31T12:36:44;11.70;99.90
18721;DHT22;9489;50.948;3.114;2023-03-31T12:42:25;11.70;99.90
18721;DHT22;9489;50.948;3.114;2023-03-31T12:52:50;11.70;99.90
18721;DHT22;9489;50.948;3.114;2023-03-31T12:55:45;11.70;99.90
18721;DHT22;9489;50.948;3.114;2023-03-31T13:08:57;11.60;99.90
18721;DHT22;9489;50.948;3.114;2023-03-31T13:14:16;11.60;99.90
18721;DHT22;9489;50.948;3.114;2023-03-31T13:16:42;11.60;99.90
18721;DHT22;9489;50.948;3.114;2023-03-31T13:19:11;11.60;99.90
18721;DHT22;9489;50.948;3.114;2023-03-31T13:21:53;11.50;99.90
18721;DHT22;9489;50.948;3.114;2023-03-31T13:24:21;11.50;99.90
18721;DHT22;9489;50.948;3.114;2023-03-31T13:26:48;11.40;99.90
18721;DHT22;9489;50.948;3.114;2023-03-31T13:40:21;11.40;99.90
18721;DHT22;9489;50.948;3.114;2023-03-31T13:43:01;11.40;99.90
18721;DHT22;9489;50.948;3.114;2023-03-31T13:57:04;11.50;99.90
18721;DHT22;9489;50.948;3.114;2023-03-31T14:05:16;11.60;99.90
18721;DHT22;9489;50.948;3.114;2023-03-31T14:07:49;11.70;99.90
18721;DHT22;9489;50.948;3.114;2023-03-31T14:10:23;11.70;99.90
18721;DHT22;9489;50.948;3.114;2023-03-31T14:12:48;11.70;99.90
18721;DHT22;9489;50.948;3.114;2023-03-31T14:15:18;11.80;99.90
18721;DHT22;9489;50.948;3.114;2023-03-31T14:17:44;11.80;99.90
18721;DHT22;9489;50.948;3.114;2023-03-31T14:23:07;11.70;99.90
18721;DHT22;9489;50.948;3.114;2023-03-31T14:25:46;11.60;99.90
18721;DHT22;9489;50.948;3.114;2023-03-31T14:31:08;11.50;99.90
18721;DHT22;9489;50.948;3.114;2023-03-31T14:36:32;11.40;99.90
18721;DHT22;9489;50.948;3.114;2023-03-31T14:39:05;11.40;99.90
18721;DHT22;9489;50.948;3.114;2023-03-31T14:41:33;11.40;99.90
18721;DHT22;9489;50.948;3.114;2023-03-31T14:44:04;11.40;99.90
18721;DHT22;9489;50.948;3.114;2023-03-31T14:46:31;11.40;99.90
18721;DHT22;9489;50.948;3.114;2023-03-31T14:48:57;11.40;99.90
18721;DHT22;9489;50.948;3.114;2023-03-31T14:51:29;11.40;99.90
18721;DHT22;9489;50.948;3.114;2023-03-31T14:53:56;11.40;99.90
18721;DHT22;9489;50.948;3.114;2023-03-31T14:56:33;11.40;99.90
18721;DHT22;9489;50.948;3.114;2023-03-31T14:59:01;11.40;99.90
18721;DHT22;9489;50.948;3.114;2023-03-31T15:01:32;11.50;99.90
18721;DHT22;9489;50.948;3.114;2023-03-31T15:04:01;11.40;99.90
18721;DHT22;9489;50.948;3.114;2023-03-31T15:06:30;11.40;99.90
18721;DHT22;9489;50.948;3.114;2023-03-31T15:09:01;11.40;99.90
18721;DHT22;9489;50.948;3.114;2023-03-31T15:11:29;11.40;99.90
18721;DHT22;9489;50.948;3.114;2023-03-31T15:13:56;11.40;99.90
18721;DHT22;9489;50.948;3.114;2023-03-31T15:19:03;11.40;99.90
18721;DHT22;9489;50.948;3.114;2023-03-31T15:21:30;11.40;99.90
18721;DHT22;9489;50.948;3.114;2023-03-31T15:23:58;11.40;99.90
18721;DHT22;9489;50.948;3.114;2023-03-31T15:26:29;11.50;99.90
18721;DHT22;9489;50.948;3.114;2023-03-31T15:29:07;11.50;99.90
18721;DHT22;9489;50.948;3.114;2023-03-31T15:31:34;11.50;99.90
18721;DHT22;9489;50.948;3.114;2023-03-31T15:34:10;11.50;99.90
18721;DHT22;9489;50.948;3.114;2023-03-31T15:36:35;11.50;99.90
18721;DHT22;9489;50.948;3.114;2023-03-31T15:39:04;11.50;99.90
18721;DHT22;9489;50.948;3.114;2023-03-31T15:41:30;11.50;99.90
18721;DHT22;9489;50.948;3.114;2023-03-31T15:44:07;11.60;99.90
18721;DHT22;9489;50.948;3.114;2023-03-31T15:46:58;11.60;99.90
18721;DHT22;9489;50.948;3.114;2023-03-31T15:49:25;11.60;99.90
18721;DHT22;9489;50.948;3.114;2023-03-31T15:51:52;11.60;99.90
18721;DHT22;9489;50.948;3.114;2023-03-31T15:54:38;11.50;99.90
18721;DHT22;9489;50.948;3.114;2023-03-31T15:57:06;11.50;99.90
18721;DHT22;9489;50.948;3.114;2023-03-31T15:59:48;11.40;99.90
18721;DHT22;9489;50.948;3.114;2023-03-31T16:02:18;11.30;99.90
18721;DHT22;9489;50.948;3.114;2023-03-31T16:04:48;11.40;99.90
18721;DHT22;9489;50.948;3.114;2023-03-31T16:07:21;11.30;99.90
18721;DHT22;9489;50.948;3.114;2023-03-31T16:12:32;11.40;99.90
18721;DHT22;9489;50.948;3.114;2023-03-31T16:15:09;11.40;99.90
18721;DHT22;9489;50.948;3.114;2023-03-31T16:17:38;11.40;99.90
18721;DHT22;9489;50.948;3.114;2023-03-31T16:20:06;11.40;99.90
18721;DHT22;9489;50.948;3.114;2023-03-31T16:22:40;11.40;99.90
18721;DHT22;9489;50.948;3.114;2023-03-31T16:25:15;11.40;99.90
18721;DHT22;9489;50.948;3.114;2023-03-31T16:27:49;11.30;99.90
18721;DHT22;9489;50.948;3.114;2023-03-31T16:30:18;11.40;99.90
18721;DHT22;9489;50.948;3.114;2023-03-31T16:33:14;11.40;99.90
18721;DHT22;9489;50.948;3.114;2023-03-31T16:35:47;11.40;99.90
18721;DHT22;9489;50.948;3.114;2023-03-31T16:38:15;11.40;99.90
18721;DHT22;9489;50.948;3.114;2023-03-31T16:40:49;11.40;99.90
18721;DHT22;9489;50.948;3.114;2023-03-31T16:43:18;11.30;99.90
18721;DHT22;9489;50.948;3.114;2023-03-31T16:45:58;11.30;99.90
18721;DHT22;9489;50.948;3.114;2023-03-31T16:48:25;11.30;99.90
18721;DHT22;9489;50.948;3.114;2023-03-31T16:50:53;11.30;99.90
18721;DHT22;9489;50.948;3.114;2023-03-31T16:53:21;11.30;99.90
18721;DHT22;9489;50.948;3.114;2023-03-31T16:55:48;11.30;99.90
18721;DHT22;9489;50.948;3.114;2023-03-31T16:58:14;11.30;99.90
18721;DHT22;9489;50.948;3.114;2023-03-31T17:00:41;11.20;99.90
18721;DHT22;9489;50.948;3.114;2023-03-31T17:03:08;11.30;99.90
18721;DHT22;9489;50.948;3.114;2023-03-31T17:05:42;11.30;99.90
18721;DHT22;9489;50.948;3.114;2023-03-31T17:08:09;11.30;99.90
18721;DHT22;9489;50.948;3.114;2023-03-31T17:10:36;11.30;99.90
18721;DHT22;9489;50.948;3.114;2023-03-31T17:13:03;11.40;99.90
18721;DHT22;9489;50.948;3.114;2023-03-31T17:15:28;11.40;99.90
18721;DHT22;9489;50.948;3.114;2023-03-31T17:17:55;11.40;99.90
18721;DHT22;9489;50.948;3.114;2023-03-31T17:20:25;11.40;99.90
18721;DHT22;9489;50.948;3.114;2023-03-31T17:22:51;11.40;99.90
18721;DHT22;9489;50.948;3.114;2023-03-31T17:25:17;11.40;99.90
18721;DHT22;9489;50.948;3.114;2023-03-31T17:27:44;11.40;99.90
18721;DHT22;9489;50.948;3.114;2023-03-31T17:30:10;11.40;99.90
18721;DHT22;9489;50.948;3.114;2023-03-31T17:32:37;11.50;99.90
18721;DHT22;9489;50.948;3.114;2023-03-31T17:35:03;11.50;99.90
18721;DHT22;9489;50.948;3.114;2023-03-31T17:37:29;11.50;99.90
18721;DHT22;9489;50.948;3.114;2023-03-31T17:39:54;11.50;99.90
18721;DHT22;9489;50.948;3.114;2023-03-31T17:42:20;11.50;99.90
18721;DHT22;9489;50.948;3.114;2023-03-31T17:44:46;11.60;99.90
18721;DHT22;9489;50.948;3.114;2023-03-31T17:47:15;11.60;99.90
18721;DHT22;9489;50.948;3.114;2023-03-31T17:49:40;11.50;99.90
18721;DHT22;9489;50.948;3.114;2023-03-31T17:52:07;11.50;99.90
18721;DHT22;9489;50.948;3.114;2023-03-31T17:54:32;11.50;99.90
18721;DHT22;9489;50.948;3.114;2023-03-31T17:56:58;11.50;99.90
18721;DHT22;9489;50.948;3.114;2023-03-31T17:59:25;11.40;99.90
18721;DHT22;9489;50.948;3.114;2023-03-31T18:01:50;11.40;99.90
18721;DHT22;9489;50.948;3.114;2023-03-31T18:04:17;11.40;99.90
18721;DHT22;9489;50.948;3.114;2023-03-31T18:06:42;11.30;99.90
18721;DHT22;9489;50.948;3.114;2023-03-31T18:09:09;11.20;99.90
18721;DHT22;9489;50.948;3.114;2023-03-31T18:11:35;11.20;99.90
18721;DHT22;9489;50.948;3.114;2023-03-31T18:14:02;11.20;99.90
18721;DHT22;9489;50.948;3.114;2023-03-31T18:16:29;11.10;99.90
18721;DHT22;9489;50.948;3.114;2023-03-31T18:18:55;11.10;99.90
18721;DHT22;9489;50.948;3.114;2023-03-31T18:21:21;11.00;99.90
18721;DHT22;9489;50.948;3.114;2023-03-31T18:23:48;11.00;99.90
18721;DHT22;9489;50.948;3.114;2023-03-31T18:26:18;10.90;99.90
18721;DHT22;9489;50.948;3.114;2023-03-31T18:28:44;10.90;99.90
18721;DHT22;9489;50.948;3.114;2023-03-31T18:31:11;10.90;99.90
18721;DHT22;9489;50.948;3.114;2023-03-31T18:33:37;10.80;99.90
18721;DHT22;9489;50.948;3.114;2023-03-31T18:36:04;10.80;99.90
18721;DHT22;9489;50.948;3.114;2023-03-31T18:38:30;10.80;99.90
18721;DHT22;9489;50.948;3.114;2023-03-31T18:40:55;10.80;99.90
18721;DHT22;9489;50.948;3.114;2023-03-31T18:43:23;10.80;99.90
18721;DHT22;9489;50.948;3.114;2023-03-31T18:45:51;10.80;99.90
18721;DHT22;9489;50.948;3.114;2023-03-31T18:48:18;10.80;99.90
18721;DHT22;9489;50.948;3.114;2023-03-31T18:50:49;10.70;99.90
18721;DHT22;9489;50.948;3.114;2023-03-31T18:53:16;10.70;99.90